createdAt,value
2022-12-25T00:01:17.889Z,20.30
2022-12-25T00:03:45.312Z,14.43
2022-12-25T00:06:13.024Z,17.60
2022-12-25T00:08:40.779Z,16.55
2022-12-25T00:11:13.337Z,15.98
2022-12-25T00:13:42.325Z,16.30
2022-12-25T00:16:13.834Z,17.13
2022-12-25T00:18:41.115Z,19.52
2022-12-25T00:21:08.420Z,17.60
2022-12-25T00:23:36.155Z,14.82
2022-12-25T00:26:07.178Z,17.08
2022-12-25T00:28:36.136Z,17.70
2022-12-25T00:31:08.967Z,16.77
2022-12-25T00:33:39.821Z,13.77
2022-12-25T00:36:08.184Z,14.80
2022-12-25T00:38:36.948Z,15.05
2022-12-25T00:41:15.680Z,12.93
2022-12-25T00:43:43.469Z,14.18
2022-12-25T00:46:12.651Z,15.65
2022-12-25T00:48:40.548Z,14.30
2022-12-25T00:51:11.144Z,11.40
2022-12-25T00:53:38.891Z,10.52
2022-12-25T00:56:07.718Z,15.35
2022-12-25T00:58:35.625Z,15.20
2022-12-25T01:01:03.251Z,12.82
2022-12-25T01:03:30.650Z,13.07
2022-12-25T01:06:03.110Z,13.00
2022-12-25T01:08:31.991Z,12.40
2022-12-25T01:11:01.900Z,13.02
2022-12-25T01:13:30.674Z,16.00
2022-12-25T01:15:58.121Z,13.10
2022-12-25T01:18:25.436Z,14.57
2022-12-25T01:20:52.644Z,13.55
2022-12-25T01:23:19.897Z,15.50
2022-12-25T01:25:47.227Z,15.63
2022-12-25T01:28:15.973Z,16.77
2022-12-25T01:30:48.882Z,14.77
2022-12-25T01:33:16.156Z,15.57
2022-12-25T01:35:43.389Z,20.42
2022-12-25T01:38:10.640Z,15.60
2022-12-25T01:40:39.924Z,19.58
2022-12-25T01:43:22.596Z,18.13
2022-12-25T01:45:52.570Z,18.17
2022-12-25T01:48:23.679Z,17.77
2022-12-25T01:50:57.803Z,18.80
2022-12-25T01:53:26.377Z,16.13
2022-12-25T01:55:57.477Z,14.82
2022-12-25T01:58:25.275Z,15.85
2022-12-25T02:00:52.965Z,14.77
2022-12-25T02:03:21.564Z,14.40
2022-12-25T02:05:49.036Z,15.60
2022-12-25T02:08:17.532Z,15.60
2022-12-25T02:10:45.231Z,15.45
2022-12-25T02:13:14.798Z,12.35
2022-12-25T02:16:12.531Z,13.55
2022-12-25T02:18:45.772Z,12.63
2022-12-25T02:21:40.705Z,13.85
2022-12-25T02:24:20.139Z,13.15
2022-12-25T02:27:32.309Z,12.30
2022-12-25T02:30:04.511Z,11.25
2022-12-25T02:33:13.926Z,11.05
2022-12-25T02:35:42.689Z,13.07
2022-12-25T02:38:25.839Z,12.93
2022-12-25T02:40:57.994Z,11.48
2022-12-25T02:43:48.851Z,16.33
2022-12-25T02:46:36.692Z,10.85
2022-12-25T02:49:26.211Z,10.27
2022-12-25T02:52:16.115Z,11.85
2022-12-25T02:55:11.698Z,10.23
2022-12-25T02:58:01.179Z,12.52
2022-12-25T03:00:48.241Z,19.80
2022-12-25T03:03:34.640Z,12.07
2022-12-25T03:06:22.272Z,13.68
2022-12-25T03:08:53.216Z,14.10
2022-12-25T03:11:32.556Z,14.32
2022-12-25T03:14:24.794Z,11.03
2022-12-25T03:16:54.831Z,15.10
2022-12-25T03:19:45.088Z,9.43
2022-12-25T03:22:35.561Z,13.55
2022-12-25T03:25:21.538Z,13.10
2022-12-25T03:27:52.843Z,15.38
2022-12-25T03:30:40.151Z,15.77
2022-12-25T03:33:44.311Z,16.27
2022-12-25T03:36:15.659Z,18.23
2022-12-25T03:38:49.870Z,15.45
2022-12-25T03:41:55.805Z,22.77
2022-12-25T03:44:53.302Z,23.45
2022-12-25T03:47:35.632Z,23.35
2022-12-25T03:50:23.423Z,28.00
2022-12-25T03:53:11.939Z,26.02
2022-12-25T03:55:58.209Z,27.83
2022-12-25T03:58:45.056Z,22.75
2022-12-25T04:01:31.837Z,24.35
2022-12-25T04:04:18.160Z,23.70
2022-12-25T04:07:04.067Z,26.77
2022-12-25T04:09:49.975Z,30.80
2022-12-25T04:12:35.796Z,30.13
2022-12-25T04:15:35.390Z,28.75
2022-12-25T04:18:21.372Z,37.50
2022-12-25T04:21:07.018Z,30.83
2022-12-25T04:23:53.062Z,33.60
2022-12-25T04:26:38.999Z,32.72
2022-12-25T04:29:25.159Z,31.08
2022-12-25T04:32:11.189Z,33.25
2022-12-25T04:34:57.083Z,33.80
2022-12-25T04:37:24.502Z,28.42
2022-12-25T04:39:51.867Z,40.05
2022-12-25T04:42:19.338Z,35.53
2022-12-25T04:44:46.541Z,34.60
2022-12-25T04:47:13.841Z,39.78
2022-12-25T04:49:41.194Z,34.25
2022-12-25T04:52:08.759Z,28.27
2022-12-25T04:54:38.152Z,30.63
2022-12-25T04:57:05.899Z,29.83
2022-12-25T04:59:33.199Z,31.42
2022-12-25T05:02:00.620Z,35.90
2022-12-25T05:04:28.028Z,30.38
2022-12-25T05:06:55.477Z,28.10
2022-12-25T05:09:22.955Z,27.00
2022-12-25T05:11:50.365Z,28.48
2022-12-25T05:14:17.836Z,29.10
2022-12-25T05:16:45.339Z,31.48
2022-12-25T05:19:12.691Z,31.58
2022-12-25T05:21:39.956Z,25.92
2022-12-25T05:24:07.328Z,27.27
2022-12-25T05:26:34.709Z,22.23
2022-12-25T05:29:02.106Z,28.08
2022-12-25T05:31:29.447Z,22.60
2022-12-25T05:33:56.871Z,22.88
2022-12-25T05:36:24.182Z,21.60
2022-12-25T05:38:51.683Z,21.35
2022-12-25T05:41:19.139Z,19.90
2022-12-25T05:43:46.432Z,26.25
2022-12-25T05:46:14.406Z,20.88
2022-12-25T05:48:41.801Z,28.10
2022-12-25T05:51:12.075Z,23.42
2022-12-25T05:56:07.755Z,21.02
2022-12-25T05:58:37.084Z,25.55
2022-12-25T06:01:04.423Z,21.80
2022-12-25T06:03:32.073Z,20.50
2022-12-25T06:05:59.425Z,19.67
2022-12-25T06:08:26.754Z,27.02
2022-12-25T06:10:54.113Z,21.88
2022-12-25T06:13:21.417Z,19.60
2022-12-25T06:15:49.157Z,18.95
2022-12-25T06:18:16.397Z,23.45
2022-12-25T06:20:43.725Z,18.13
2022-12-25T06:23:11.325Z,18.30
2022-12-25T06:25:40.374Z,22.80
2022-12-25T06:28:07.719Z,24.17
2022-12-25T06:30:35.062Z,18.70
2022-12-25T06:33:02.418Z,21.55
2022-12-25T06:35:29.805Z,20.90
2022-12-25T06:37:57.376Z,24.33
2022-12-25T06:40:24.636Z,19.50
2022-12-25T06:42:52.107Z,17.92
2022-12-25T06:45:19.305Z,17.92
2022-12-25T06:47:46.772Z,22.70
2022-12-25T06:50:14.064Z,15.57
2022-12-25T06:52:41.677Z,21.17
2022-12-25T06:55:09.464Z,17.10
2022-12-25T06:57:36.783Z,18.00
2022-12-25T07:00:04.835Z,20.40
2022-12-25T07:02:33.516Z,15.30
2022-12-25T07:05:01.599Z,21.88
2022-12-25T07:07:28.861Z,21.27
2022-12-25T07:09:56.332Z,17.40
2022-12-25T07:12:24.271Z,17.20
2022-12-25T07:14:54.175Z,14.35
2022-12-25T07:17:22.075Z,17.77
2022-12-25T07:19:49.797Z,16.80
2022-12-25T07:22:17.155Z,17.90
2022-12-25T07:24:44.464Z,17.48
2022-12-25T07:27:11.768Z,20.13
2022-12-25T07:29:39.145Z,16.10
2022-12-25T07:32:06.494Z,20.52
2022-12-25T07:34:33.815Z,15.98
2022-12-25T07:37:01.205Z,15.70
2022-12-25T07:39:28.612Z,17.05
2022-12-25T07:41:55.949Z,17.60
2022-12-25T07:44:26.780Z,14.38
2022-12-25T07:46:54.041Z,17.30
2022-12-25T07:49:21.296Z,17.35
2022-12-25T07:51:48.598Z,21.88
2022-12-25T07:54:16.005Z,14.93
2022-12-25T07:56:43.200Z,20.42
2022-12-25T07:59:10.568Z,18.90
2022-12-25T08:01:37.969Z,16.45
2022-12-25T08:04:05.528Z,16.88
2022-12-25T08:06:34.660Z,26.23
2022-12-25T08:09:07.565Z,19.90
2022-12-25T08:11:34.920Z,25.00
2022-12-25T08:14:05.047Z,18.90
2022-12-25T08:18:59.553Z,22.23
2022-12-25T08:21:27.274Z,18.27
2022-12-25T08:23:54.494Z,14.18
2022-12-25T08:26:22.744Z,13.82
2022-12-25T08:28:50.580Z,22.05
2022-12-25T08:31:26.312Z,16.73
2022-12-25T08:33:56.279Z,17.80
2022-12-25T08:36:24.187Z,16.30
2022-12-25T08:38:54.588Z,17.27
2022-12-25T08:41:26.624Z,11.48
2022-12-25T08:43:54.052Z,13.90
2022-12-25T08:46:21.486Z,15.50
2022-12-25T08:48:49.854Z,16.02
2022-12-25T08:51:19.892Z,14.68
2022-12-25T08:53:48.471Z,14.50
2022-12-25T08:56:16.502Z,17.77
2022-12-25T08:58:44.057Z,12.38
2022-12-25T09:01:12.559Z,17.80
2022-12-25T09:03:40.188Z,13.82
2022-12-25T09:06:09.966Z,17.48
2022-12-25T09:08:42.405Z,24.90
2022-12-25T09:11:14.414Z,14.68
2022-12-25T09:13:42.127Z,13.77
2022-12-25T09:16:12.398Z,12.80
2022-12-25T09:18:39.807Z,13.18
2022-12-25T09:21:09.856Z,16.20
2022-12-25T09:23:37.521Z,12.77
2022-12-25T09:26:06.651Z,16.05
2022-12-25T09:28:34.399Z,10.80
2022-12-25T09:31:01.863Z,12.98
2022-12-25T09:33:29.288Z,10.32
2022-12-25T09:36:01.795Z,13.18
2022-12-25T09:38:29.673Z,12.90
2022-12-25T09:41:08.389Z,11.15
2022-12-25T09:43:42.577Z,11.52
2022-12-25T09:46:15.641Z,13.85
2022-12-25T09:48:48.549Z,11.82
2022-12-25T09:51:17.068Z,11.32
2022-12-25T09:53:50.349Z,15.25
2022-12-25T09:56:20.218Z,11.45
2022-12-25T09:58:47.479Z,12.07
2022-12-25T10:01:21.604Z,13.25
2022-12-25T10:04:01.002Z,11.15
2022-12-25T10:06:41.200Z,12.23
2022-12-25T10:09:20.767Z,11.65
2022-12-25T10:12:06.756Z,11.43
2022-12-25T10:14:36.845Z,13.52
2022-12-25T10:17:41.304Z,14.65
2022-12-25T10:20:35.090Z,13.77
2022-12-25T10:23:04.746Z,15.55
2022-12-25T10:25:32.735Z,12.38
2022-12-25T10:28:04.787Z,11.60
2022-12-25T10:30:32.575Z,10.32
2022-12-25T10:33:00.446Z,10.95
2022-12-25T10:35:29.208Z,11.27
2022-12-25T10:38:02.952Z,12.02
2022-12-25T10:41:00.070Z,13.45
2022-12-25T10:43:33.887Z,15.32
2022-12-25T10:46:01.192Z,11.82
2022-12-25T10:48:30.139Z,12.20
2022-12-25T10:50:57.516Z,13.68
2022-12-25T10:53:29.567Z,11.63
2022-12-25T10:56:02.615Z,11.95
2022-12-25T10:58:30.486Z,10.88
2022-12-25T11:01:06.651Z,12.82
2022-12-25T11:03:44.183Z,11.13
2022-12-25T11:06:27.255Z,9.73
2022-12-25T11:08:58.857Z,9.45
2022-12-25T11:11:27.428Z,17.85
2022-12-25T11:13:59.477Z,14.30
2022-12-25T11:16:26.836Z,12.70
2022-12-25T11:18:55.213Z,8.60
2022-12-25T11:21:24.519Z,10.88
2022-12-25T11:24:15.959Z,11.95
2022-12-25T11:26:51.946Z,11.20
2022-12-25T11:29:25.421Z,16.42
2022-12-25T11:31:54.890Z,13.07
2022-12-25T11:34:41.988Z,12.65
2022-12-25T11:37:16.103Z,14.30
2022-12-25T11:39:43.491Z,11.48
2022-12-25T11:42:27.490Z,11.40
2022-12-25T11:45:29.317Z,10.25
2022-12-25T11:48:12.073Z,10.65
2022-12-25T11:50:46.737Z,13.43
2022-12-25T11:53:22.989Z,8.98
2022-12-25T11:55:55.053Z,10.32
2022-12-25T11:58:25.289Z,8.52
2022-12-25T12:00:54.885Z,10.23
2022-12-25T12:03:28.766Z,12.63
2022-12-25T12:06:02.694Z,20.35
2022-12-25T12:08:30.447Z,15.43
2022-12-25T12:11:17.825Z,10.88
2022-12-25T12:13:51.526Z,12.98
2022-12-25T12:16:19.076Z,15.13
2022-12-25T12:18:50.331Z,16.17
2022-12-25T12:21:17.889Z,9.95
2022-12-25T12:24:17.233Z,7.90
2022-12-25T12:26:46.155Z,9.83
2022-12-25T12:29:29.157Z,10.45
2022-12-25T12:32:00.857Z,11.60
2022-12-25T12:34:42.450Z,10.18
2022-12-25T12:37:24.855Z,10.25
2022-12-25T12:39:54.275Z,6.90
2022-12-25T12:42:40.421Z,10.13
2022-12-25T12:45:11.079Z,9.45
2022-12-25T12:47:41.909Z,9.80
2022-12-25T12:50:36.504Z,11.48
2022-12-25T12:53:22.252Z,9.10
2022-12-25T12:55:50.715Z,11.85
2022-12-25T12:58:33.095Z,9.73
2022-12-25T13:01:35.723Z,8.93
2022-12-25T13:04:18.220Z,10.10
2022-12-25T13:06:54.064Z,10.02
2022-12-25T13:09:49.076Z,10.38
2022-12-25T13:12:17.280Z,10.32
2022-12-25T13:14:46.326Z,8.82
2022-12-25T13:17:18.864Z,8.70
2022-12-25T13:19:46.736Z,7.97
2022-12-25T13:22:25.974Z,7.85
2022-12-25T13:24:58.725Z,8.63
2022-12-25T13:27:31.337Z,9.98
2022-12-25T13:29:59.175Z,10.52
2022-12-25T13:32:28.933Z,10.38
2022-12-25T13:34:56.294Z,11.20
2022-12-25T13:37:28.903Z,11.35
2022-12-25T13:39:57.166Z,8.27
2022-12-25T13:42:27.650Z,10.80
2022-12-25T13:45:02.060Z,11.27
2022-12-25T13:47:33.795Z,12.43
2022-12-25T13:50:22.180Z,21.90
2022-12-25T13:52:49.899Z,11.52
2022-12-25T13:55:22.621Z,13.55
2022-12-25T13:57:59.260Z,10.93
2022-12-25T14:00:39.616Z,8.02
2022-12-25T14:03:07.950Z,8.57
2022-12-25T14:05:42.787Z,11.05
2022-12-25T14:08:17.287Z,8.27
2022-12-25T14:10:46.368Z,8.57
2022-12-25T14:13:15.043Z,8.55
2022-12-25T14:15:43.130Z,9.35
2022-12-25T14:18:21.204Z,11.13
2022-12-25T14:21:00.176Z,8.05
2022-12-25T14:23:31.150Z,9.20
2022-12-25T14:25:58.514Z,11.07
2022-12-25T14:28:32.158Z,8.30
2022-12-25T14:31:01.140Z,11.48
2022-12-25T14:33:32.991Z,10.07
2022-12-25T14:36:00.353Z,10.00
2022-12-25T14:38:35.149Z,9.75
2022-12-25T14:41:05.195Z,8.15
2022-12-25T14:43:34.511Z,10.95
2022-12-25T14:46:08.152Z,8.83
2022-12-25T14:48:35.607Z,10.27
2022-12-25T14:51:16.143Z,8.23
2022-12-25T14:53:50.525Z,9.80
2022-12-25T14:56:20.620Z,7.22
2022-12-25T14:58:50.943Z,10.32
2022-12-25T15:01:34.523Z,9.95
2022-12-25T15:04:11.113Z,7.85
2022-12-25T15:06:53.253Z,13.07
2022-12-25T15:09:21.087Z,8.65
2022-12-25T15:11:53.023Z,8.90
2022-12-25T15:14:20.386Z,19.20
2022-12-25T15:16:50.161Z,20.27
2022-12-25T15:19:26.625Z,17.60
2022-12-25T15:21:57.657Z,11.27
2022-12-25T15:24:25.179Z,9.57
2022-12-25T15:26:55.273Z,7.93
2022-12-25T15:29:44.538Z,9.48
2022-12-25T15:32:19.326Z,9.10
2022-12-25T15:34:47.278Z,10.05
2022-12-25T15:37:14.678Z,9.75
2022-12-25T15:39:42.139Z,14.70
2022-12-25T15:42:22.923Z,12.45
2022-12-25T15:44:50.749Z,9.80
2022-12-25T15:47:20.164Z,23.70
2022-12-25T15:49:47.644Z,10.23
2022-12-25T15:52:16.699Z,22.27
2022-12-25T15:54:44.211Z,13.85
2022-12-25T15:57:18.498Z,11.02
2022-12-25T15:59:45.771Z,9.77
2022-12-25T16:02:18.973Z,8.93
2022-12-25T16:04:46.894Z,13.85
2022-12-25T16:07:24.956Z,13.32
2022-12-25T16:09:52.344Z,10.57
2022-12-25T16:12:20.645Z,9.05
2022-12-25T16:14:47.977Z,11.45
2022-12-25T16:17:16.596Z,10.90
2022-12-25T16:19:44.952Z,11.25
2022-12-25T16:22:19.726Z,8.40
2022-12-25T16:24:48.034Z,11.07
2022-12-25T16:27:15.374Z,13.63
2022-12-25T16:29:42.734Z,11.02
2022-12-25T16:32:11.126Z,17.67
2022-12-25T16:34:38.510Z,18.75
2022-12-25T16:37:06.093Z,12.15
2022-12-25T16:39:33.352Z,14.88
2022-12-25T16:42:00.752Z,15.75
2022-12-25T16:44:28.094Z,10.35
2022-12-25T16:46:55.345Z,14.68
2022-12-25T16:49:22.774Z,12.05
2022-12-25T16:51:50.072Z,13.82
2022-12-25T16:54:17.455Z,14.80
2022-12-25T16:56:44.761Z,13.73
2022-12-25T16:59:12.098Z,15.68
2022-12-25T17:01:43.187Z,12.02
2022-12-25T17:04:10.865Z,14.48
2022-12-25T17:06:38.260Z,15.70
2022-12-25T17:09:05.752Z,15.63
2022-12-25T17:11:33.359Z,24.38
2022-12-25T17:14:02.729Z,20.35
2022-12-25T17:16:32.642Z,21.50
2022-12-25T17:19:04.190Z,12.07
2022-12-25T17:21:35.447Z,21.42
2022-12-25T17:24:04.145Z,16.05
2022-12-25T17:26:32.523Z,19.73
2022-12-25T17:29:00.290Z,16.15
2022-12-25T17:31:27.766Z,16.77
2022-12-25T17:33:55.326Z,16.60
2022-12-25T17:36:22.917Z,21.23
2022-12-25T17:38:50.142Z,25.33
2022-12-25T17:41:18.615Z,18.27
2022-12-25T17:43:46.735Z,13.90
2022-12-25T17:46:19.720Z,14.02
2022-12-25T17:48:47.619Z,14.13
2022-12-25T17:51:16.771Z,13.98
2022-12-25T17:53:46.583Z,12.88
2022-12-25T17:56:14.398Z,11.13
2022-12-25T17:58:42.314Z,14.50
2022-12-25T18:01:13.957Z,17.83
2022-12-25T18:03:42.804Z,14.90
2022-12-25T18:06:15.290Z,18.60
2022-12-25T18:08:44.556Z,14.18
2022-12-25T18:11:24.548Z,13.05
2022-12-25T18:13:53.522Z,14.32
2022-12-25T18:16:22.924Z,18.10
2022-12-25T18:18:52.711Z,16.17
2022-12-25T18:21:21.735Z,14.93
2022-12-25T18:23:50.140Z,13.10
2022-12-25T18:26:18.835Z,15.07
2022-12-25T18:28:46.554Z,15.52
2022-12-25T18:31:16.951Z,16.48
2022-12-25T18:33:45.336Z,12.20
2022-12-25T18:36:14.302Z,14.98
2022-12-25T18:38:42.363Z,15.27
2022-12-25T18:41:10.585Z,13.95
2022-12-25T18:43:52.947Z,19.95
2022-12-25T18:46:27.060Z,14.40
2022-12-25T18:48:56.156Z,15.98
2022-12-25T18:51:23.575Z,15.90
2022-12-25T18:53:51.405Z,16.42
2022-12-25T18:56:20.154Z,15.82
2022-12-25T18:58:47.656Z,17.55
2022-12-25T19:01:18.236Z,15.13
2022-12-25T19:03:46.364Z,17.10
2022-12-25T19:06:22.940Z,16.35
2022-12-25T19:08:50.727Z,14.20
2022-12-25T19:11:18.332Z,17.25
2022-12-25T19:13:46.084Z,16.30
2022-12-25T19:16:14.154Z,20.00
2022-12-25T19:18:42.688Z,15.57
2022-12-25T19:21:10.487Z,17.33
2022-12-25T19:23:38.681Z,14.52
2022-12-25T19:26:07.579Z,14.18
2022-12-25T19:28:35.723Z,13.05
2022-12-25T19:31:07.300Z,11.50
2022-12-25T19:33:35.823Z,16.88
2022-12-25T19:36:04.989Z,19.40
2022-12-25T19:38:32.584Z,14.60
2022-12-25T19:41:02.890Z,17.75
2022-12-25T19:43:33.397Z,14.70
2022-12-25T19:46:01.606Z,15.25
2022-12-25T19:48:30.710Z,15.20
2022-12-25T19:50:58.283Z,19.92
2022-12-25T19:53:26.248Z,19.90
2022-12-25T19:55:53.895Z,15.68
2022-12-25T19:58:22.403Z,12.63
2022-12-25T20:01:07.381Z,20.38
2022-12-25T20:03:40.203Z,23.90
2022-12-25T20:06:22.086Z,16.45
2022-12-25T20:08:52.528Z,20.65
2022-12-25T20:11:21.227Z,18.33
2022-12-25T20:13:48.669Z,17.13
2022-12-25T20:16:16.181Z,21.83
2022-12-25T20:18:43.644Z,20.23
2022-12-25T20:21:14.207Z,14.85
2022-12-25T20:23:42.604Z,16.00
2022-12-25T20:26:10.695Z,16.00
2022-12-25T20:28:38.768Z,11.68
2022-12-25T20:31:39.846Z,12.63
2022-12-25T20:34:10.982Z,19.45
2022-12-25T20:36:38.594Z,17.83
2022-12-25T20:39:09.673Z,16.95
2022-12-25T20:41:38.241Z,17.60
2022-12-25T20:44:08.458Z,21.48
2022-12-25T20:49:03.399Z,15.52
2022-12-25T20:51:30.862Z,14.65
2022-12-25T20:53:58.503Z,15.00
2022-12-25T20:56:27.111Z,13.35
2022-12-25T20:58:56.158Z,12.80
2022-12-25T21:01:25.035Z,12.15
2022-12-25T21:03:52.779Z,13.75
2022-12-25T21:06:21.128Z,19.02
2022-12-25T21:08:48.642Z,21.55
2022-12-25T21:11:16.841Z,13.43
2022-12-25T21:13:46.042Z,25.88
2022-12-25T21:16:19.903Z,14.30
2022-12-25T21:18:48.144Z,16.15
2022-12-25T21:21:15.492Z,14.82
2022-12-25T21:23:43.165Z,17.05
2022-12-25T21:26:19.648Z,15.30
2022-12-25T21:28:48.191Z,14.85
2022-12-25T21:31:15.551Z,15.05
2022-12-25T21:33:52.915Z,15.77
2022-12-25T21:36:29.128Z,14.75
2022-12-25T21:38:58.870Z,20.95
2022-12-25T21:41:27.727Z,17.65
2022-12-25T21:43:55.359Z,17.35
2022-12-25T21:46:23.139Z,20.73
2022-12-25T21:48:50.489Z,14.60
2022-12-25T21:51:42.039Z,15.88
2022-12-25T21:54:09.884Z,16.30
2022-12-25T21:56:44.186Z,16.67
2022-12-25T21:59:18.188Z,16.45
2022-12-25T22:01:46.642Z,25.65
2022-12-25T22:04:15.342Z,16.85
2022-12-25T22:07:01.806Z,22.45
2022-12-25T22:09:29.493Z,11.63
2022-12-25T22:12:28.610Z,14.00
2022-12-25T22:15:09.557Z,18.23
2022-12-25T22:17:59.835Z,12.77
2022-12-25T22:20:35.044Z,13.98
2022-12-25T22:23:03.030Z,17.17
2022-12-25T22:25:30.631Z,16.92
2022-12-25T22:27:57.878Z,16.27
2022-12-25T22:30:27.275Z,13.55
2022-12-25T22:32:55.157Z,11.85
2022-12-25T22:35:22.650Z,13.27
2022-12-25T22:37:50.083Z,16.38
2022-12-25T22:40:19.455Z,10.05
2022-12-25T22:42:47.759Z,11.02
2022-12-25T22:45:15.240Z,16.13
2022-12-25T22:47:42.770Z,18.67
2022-12-25T22:50:11.122Z,13.75
2022-12-25T22:52:39.256Z,13.75
2022-12-25T22:55:08.345Z,14.02
2022-12-25T22:57:36.095Z,8.75
2022-12-25T23:00:05.981Z,15.25
2022-12-25T23:02:35.263Z,11.45
2022-12-25T23:05:03.347Z,10.02
2022-12-25T23:07:30.782Z,12.05
2022-12-25T23:09:58.055Z,11.13
2022-12-25T23:12:44.094Z,10.10
2022-12-25T23:15:11.510Z,11.80
2022-12-25T23:17:57.721Z,11.38
2022-12-25T23:20:43.577Z,13.55
2022-12-25T23:23:36.156Z,11.68
2022-12-25T23:26:09.771Z,11.90
2022-12-25T23:28:57.757Z,14.60
2022-12-25T23:31:37.186Z,12.35
2022-12-25T23:34:05.660Z,9.80
2022-12-25T23:36:33.684Z,14.18
2022-12-25T23:39:08.530Z,11.27
2022-12-25T23:41:43.024Z,13.77
2022-12-25T23:44:12.010Z,10.57
2022-12-25T23:46:40.703Z,12.85
2022-12-25T23:49:09.306Z,11.95
2022-12-25T23:51:43.065Z,10.70
2022-12-25T23:54:15.642Z,10.57
2022-12-25T23:56:43.276Z,10.95
2022-12-25T23:59:11.782Z,13.15
